createdAt,value
2022-10-01T00:02:04.814Z,12.98
2022-10-01T00:04:37.099Z,12.57
2022-10-01T00:07:09.537Z,12.70
2022-10-01T00:09:39.362Z,12.51
2022-10-01T00:12:09.303Z,12.51
2022-10-01T00:14:39.395Z,12.67
2022-10-01T00:17:07.649Z,12.51
2022-10-01T00:19:37.291Z,12.39
2022-10-01T00:22:05.594Z,12.62
2022-10-01T00:24:34.004Z,12.79
2022-10-01T00:27:02.230Z,12.78
2022-10-01T00:29:31.796Z,12.88
2022-10-01T00:32:00.100Z,12.53
2022-10-01T00:34:28.761Z,12.75
2022-10-01T00:36:58.677Z,12.73
2022-10-01T00:39:26.937Z,12.55
2022-10-01T00:41:55.436Z,12.77
2022-10-01T00:44:33.268Z,12.44
2022-10-01T00:47:14.731Z,12.53
2022-10-01T00:49:46.499Z,12.33
2022-10-01T00:52:20.267Z,12.56
2022-10-01T00:54:53.566Z,12.35
2022-10-01T00:57:26.498Z,12.63
2022-10-01T00:59:59.130Z,12.56
2022-10-01T01:02:27.620Z,12.58
2022-10-01T01:04:56.078Z,12.65
2022-10-01T01:07:25.818Z,12.52
2022-10-01T01:09:55.886Z,12.58
2022-10-01T01:12:45.396Z,12.72
2022-10-01T01:15:22.306Z,12.37
2022-10-01T01:18:03.474Z,12.36
2022-10-01T01:21:05.547Z,12.70
2022-10-01T01:23:55.694Z,12.47
2022-10-01T01:26:35.145Z,12.69
2022-10-01T01:29:10.255Z,12.18
2022-10-01T01:31:43.007Z,12.47
2022-10-01T01:34:15.221Z,12.39
2022-10-01T01:36:51.363Z,12.07
2022-10-01T01:39:22.552Z,12.07
2022-10-01T01:42:01.126Z,12.27
2022-10-01T01:44:36.784Z,12.69
2022-10-01T01:47:07.965Z,11.68
2022-10-01T01:49:36.592Z,12.47
2022-10-01T01:52:13.309Z,12.70
2022-10-01T01:54:44.432Z,12.19
2022-10-01T01:57:14.136Z,12.28
2022-10-01T01:59:44.264Z,12.82
2022-10-01T02:02:16.674Z,11.87
2022-10-01T02:04:50.686Z,12.89
2022-10-01T02:08:12.861Z,12.85
2022-10-01T02:11:02.669Z,12.84
2022-10-01T02:13:44.304Z,12.56
2022-10-01T02:16:22.559Z,12.38
2022-10-01T02:19:01.604Z,12.62
2022-10-01T02:21:36.149Z,12.87
2022-10-01T02:24:14.425Z,12.63
2022-10-01T02:26:46.094Z,12.94
2022-10-01T02:29:20.805Z,12.54
2022-10-01T02:31:55.624Z,12.81
2022-10-01T02:34:29.852Z,12.65
2022-10-01T02:37:02.592Z,13.01
2022-10-01T02:39:34.456Z,12.49
2022-10-01T02:42:05.124Z,12.93
2022-10-01T02:44:38.568Z,12.73
2022-10-01T02:47:15.416Z,12.91
2022-10-01T02:49:43.981Z,12.51
2022-10-01T02:52:21.652Z,12.71
2022-10-01T02:54:56.881Z,13.04
2022-10-01T02:57:27.235Z,12.90
2022-10-01T02:59:59.230Z,13.14
2022-10-01T03:02:32.163Z,12.77
2022-10-01T03:05:01.999Z,12.92
2022-10-01T03:07:35.008Z,12.80
2022-10-01T03:10:03.577Z,12.98
2022-10-01T03:12:31.858Z,13.33
2022-10-01T03:15:00.149Z,13.26
2022-10-01T03:17:30.666Z,13.37
2022-10-01T03:20:02.407Z,13.42
2022-10-01T03:22:31.503Z,13.23
2022-10-01T03:24:59.938Z,13.48
2022-10-01T03:27:28.218Z,13.42
2022-10-01T03:29:56.513Z,13.04
2022-10-01T03:32:24.747Z,13.58
2022-10-01T03:34:54.318Z,13.57
2022-10-01T03:37:22.590Z,13.59
2022-10-01T03:39:50.871Z,13.67
2022-10-01T03:42:19.158Z,13.56
2022-10-01T03:44:47.921Z,13.46
2022-10-01T03:47:16.211Z,13.70
2022-10-01T03:49:44.459Z,13.68
2022-10-01T03:52:14.045Z,13.84
2022-10-01T03:54:42.270Z,13.89
2022-10-01T03:57:10.632Z,13.88
2022-10-01T03:59:38.914Z,14.03
2022-10-01T04:02:07.885Z,13.99
2022-10-01T04:04:36.239Z,13.98
2022-10-01T04:07:04.581Z,14.05
2022-10-01T04:09:34.218Z,14.00
2022-10-01T04:12:03.332Z,14.09
2022-10-01T04:14:31.601Z,14.28
2022-10-01T04:17:00.181Z,14.33
2022-10-01T04:19:28.484Z,14.30
2022-10-01T04:21:57.159Z,14.40
2022-10-01T04:24:25.436Z,14.37
2022-10-01T04:26:55.123Z,14.25
2022-10-01T04:29:23.447Z,14.46
2022-10-01T04:31:53.452Z,14.02
2022-10-01T04:34:42.448Z,13.94
2022-10-01T04:37:10.791Z,14.10
2022-10-01T04:39:39.216Z,14.50
2022-10-01T04:42:08.846Z,14.30
2022-10-01T04:44:37.116Z,14.48
2022-10-01T04:47:05.568Z,14.66
2022-10-01T04:49:34.121Z,14.42
2022-10-01T04:52:03.112Z,14.63
2022-10-01T04:54:31.418Z,14.74
2022-10-01T04:56:59.789Z,14.85
2022-10-01T04:59:29.453Z,14.73
2022-10-01T05:01:57.784Z,14.52
2022-10-01T05:04:27.245Z,14.97
2022-10-01T05:06:56.079Z,14.85
2022-10-01T05:09:24.358Z,14.60
2022-10-01T05:11:52.643Z,14.88
2022-10-01T05:14:21.283Z,15.00
2022-10-01T05:16:50.965Z,15.09
2022-10-01T05:19:19.231Z,15.20
2022-10-01T05:21:47.506Z,14.90
2022-10-01T05:24:17.319Z,14.97
2022-10-01T05:26:45.629Z,15.44
2022-10-01T05:29:14.924Z,15.27
2022-10-01T05:31:44.333Z,15.29
2022-10-01T05:34:14.436Z,15.36
2022-10-01T05:36:42.820Z,15.01
2022-10-01T05:39:11.994Z,14.88
2022-10-01T05:41:40.957Z,14.69
2022-10-01T05:44:09.505Z,14.58
2022-10-01T05:46:37.875Z,14.69
2022-10-01T05:49:07.029Z,14.52
2022-10-01T05:51:37.204Z,14.99
2022-10-01T05:54:05.831Z,15.12
2022-10-01T05:56:34.150Z,15.23
2022-10-01T05:59:02.478Z,15.30
2022-10-01T06:01:31.832Z,14.74
2022-10-01T06:04:00.567Z,15.17
2022-10-01T06:06:30.320Z,15.04
2022-10-01T06:09:00.809Z,15.22
2022-10-01T06:11:29.210Z,15.09
2022-10-01T06:13:57.541Z,15.20
2022-10-01T06:16:25.918Z,15.13
2022-10-01T06:18:57.522Z,14.75
2022-10-01T06:21:26.554Z,15.22
2022-10-01T06:23:55.472Z,15.12
2022-10-01T06:26:25.203Z,14.83
2022-10-01T06:28:53.472Z,15.32
2022-10-01T06:31:22.503Z,15.37
2022-10-01T06:33:50.971Z,15.44
2022-10-01T06:36:19.263Z,15.25
2022-10-01T06:38:50.198Z,15.56
2022-10-01T06:41:18.672Z,15.75
2022-10-01T06:43:50.959Z,15.73
2022-10-01T06:46:19.239Z,15.80
2022-10-01T06:48:47.783Z,15.92
2022-10-01T06:51:16.070Z,15.75
2022-10-01T06:53:44.319Z,16.01
2022-10-01T06:56:13.286Z,16.12
2022-10-01T06:58:43.305Z,16.23
2022-10-01T07:01:13.185Z,16.44
2022-10-01T07:03:41.511Z,16.56
2022-10-01T07:06:11.258Z,15.83
2022-10-01T07:08:39.648Z,16.10
2022-10-01T07:11:08.242Z,16.32
2022-10-01T07:13:36.556Z,16.19
2022-10-01T07:16:05.186Z,14.94
2022-10-01T07:18:34.862Z,15.71
2022-10-01T07:21:03.132Z,15.29
2022-10-01T07:23:31.447Z,15.35
2022-10-01T07:26:00.012Z,15.28
2022-10-01T07:28:28.451Z,15.01
2022-10-01T07:31:03.028Z,15.42
2022-10-01T07:33:31.617Z,15.48
2022-10-01T07:36:04.520Z,15.44
2022-10-01T07:38:33.720Z,15.32
2022-10-01T07:41:03.634Z,15.09
2022-10-01T07:43:34.628Z,14.82
2022-10-01T07:46:03.646Z,14.98
2022-10-01T07:48:32.048Z,15.01
2022-10-01T07:51:00.421Z,14.96
2022-10-01T07:53:30.322Z,14.96
2022-10-01T07:56:02.497Z,14.86
2022-10-01T07:58:30.867Z,15.10
2022-10-01T08:01:00.657Z,14.86
2022-10-01T08:03:29.063Z,15.08
2022-10-01T08:05:57.379Z,15.19
2022-10-01T08:08:25.660Z,15.23
2022-10-01T08:10:55.243Z,15.21
2022-10-01T08:13:25.021Z,15.19
2022-10-01T08:15:54.893Z,15.56
2022-10-01T08:18:24.536Z,15.12
2022-10-01T08:20:53.281Z,15.53
2022-10-01T08:23:22.016Z,16.12
2022-10-01T08:25:50.394Z,16.50
2022-10-01T08:28:20.124Z,16.46
2022-10-01T08:30:48.472Z,16.72
2022-10-01T08:33:16.691Z,16.68
2022-10-01T08:35:45.218Z,17.17
2022-10-01T08:38:14.465Z,17.14
2022-10-01T08:40:49.659Z,16.94
2022-10-01T08:43:36.448Z,16.99
2022-10-01T08:46:07.967Z,17.57
2022-10-01T08:48:57.139Z,17.08
2022-10-01T08:51:34.010Z,17.53
2022-10-01T08:54:17.793Z,17.27
2022-10-01T08:56:48.117Z,17.38
2022-10-01T08:59:37.095Z,17.73
2022-10-01T09:02:22.130Z,17.56
2022-10-01T09:04:58.915Z,17.96
2022-10-01T09:07:46.269Z,17.60
2022-10-01T09:10:36.898Z,17.68
2022-10-01T09:13:51.783Z,18.15
2022-10-01T09:16:29.659Z,17.95
2022-10-01T09:19:21.088Z,18.26
2022-10-01T09:21:58.278Z,18.32
2022-10-01T09:24:42.143Z,18.07
2022-10-01T09:27:16.438Z,18.12
2022-10-01T09:29:50.722Z,17.59
2022-10-01T09:32:25.771Z,16.85
2022-10-01T09:34:55.708Z,17.58
2022-10-01T09:37:36.661Z,17.55
2022-10-01T09:40:15.861Z,17.81
2022-10-01T09:42:44.582Z,17.89
2022-10-01T09:45:15.195Z,17.47
2022-10-01T09:47:49.445Z,17.90
2022-10-01T09:50:23.134Z,17.58
2022-10-01T09:52:53.585Z,17.87
2022-10-01T09:55:33.782Z,18.00
2022-10-01T09:58:09.423Z,18.22
2022-10-01T10:00:40.236Z,18.44
2022-10-01T10:03:10.274Z,17.34
2022-10-01T10:05:46.795Z,17.95
2022-10-01T10:08:19.460Z,17.98
2022-10-01T10:10:53.485Z,17.99
2022-10-01T10:13:31.600Z,17.58
2022-10-01T10:16:02.324Z,17.88
2022-10-01T10:18:35.717Z,18.08
2022-10-01T10:21:08.965Z,18.38
2022-10-01T10:23:50.216Z,18.69
2022-10-01T10:26:28.718Z,18.75
2022-10-01T10:28:57.704Z,19.21
2022-10-01T10:31:29.358Z,18.87
2022-10-01T10:34:07.192Z,18.55
2022-10-01T10:36:38.018Z,18.42
2022-10-01T10:39:11.660Z,18.64
2022-10-01T10:41:48.065Z,19.16
2022-10-01T10:44:21.413Z,18.98
2022-10-01T10:46:51.670Z,19.12
2022-10-01T10:49:26.335Z,18.67
2022-10-01T10:51:57.243Z,18.44
2022-10-01T10:54:31.479Z,18.76
2022-10-01T10:57:03.311Z,18.96
2022-10-01T10:59:34.289Z,19.65
2022-10-01T11:02:05.410Z,19.91
2022-10-01T11:04:45.196Z,20.40
2022-10-01T11:07:20.866Z,20.76
2022-10-01T11:10:26.606Z,21.13
2022-10-01T11:13:14.566Z,20.92
2022-10-01T11:16:05.086Z,20.56
2022-10-01T11:19:03.370Z,19.65
2022-10-01T11:21:56.408Z,19.63
2022-10-01T11:24:54.825Z,19.29
2022-10-01T11:27:36.731Z,19.62
2022-10-01T11:30:11.837Z,19.26
2022-10-01T11:32:46.524Z,19.62
2022-10-01T11:35:42.154Z,19.82
2022-10-01T11:38:37.914Z,20.15
2022-10-01T11:41:20.112Z,20.27
2022-10-01T11:43:54.236Z,20.28
2022-10-01T11:46:53.422Z,19.54
2022-10-01T11:49:55.303Z,19.13
2022-10-01T11:52:34.550Z,18.89
2022-10-01T11:55:34.205Z,18.44
2022-10-01T11:58:31.032Z,19.16
2022-10-01T12:01:10.934Z,19.54
2022-10-01T12:03:55.700Z,19.85
2022-10-01T12:06:33.767Z,19.92
2022-10-01T12:09:09.210Z,20.38
2022-10-01T12:11:46.911Z,20.47
2022-10-01T12:14:21.092Z,20.14
2022-10-01T12:16:56.000Z,20.38
2022-10-01T12:19:30.905Z,20.38
2022-10-01T12:22:05.900Z,19.95
2022-10-01T12:24:42.463Z,20.10
2022-10-01T12:27:47.966Z,20.12
2022-10-01T12:30:20.668Z,20.67
2022-10-01T12:33:08.452Z,21.30
2022-10-01T12:35:58.542Z,21.14
2022-10-01T12:38:51.065Z,21.30
2022-10-01T12:41:33.466Z,21.41
2022-10-01T12:44:32.698Z,21.83
2022-10-01T12:47:20.508Z,22.14
2022-10-01T12:49:57.506Z,21.65
2022-10-01T12:52:46.731Z,21.65
2022-10-01T12:55:50.150Z,21.98
2022-10-01T12:58:57.104Z,22.14
2022-10-01T13:01:44.433Z,22.30
2022-10-01T13:04:39.479Z,22.37
2022-10-01T13:07:32.326Z,22.08
2022-10-01T13:10:15.998Z,22.12
2022-10-01T13:12:59.583Z,22.12
2022-10-01T13:15:33.943Z,22.01
2022-10-01T13:18:16.276Z,21.99
2022-10-01T13:20:54.258Z,21.87
2022-10-01T13:23:32.205Z,21.28
2022-10-01T13:26:09.599Z,20.69
2022-10-01T13:28:56.747Z,20.75
2022-10-01T13:31:41.416Z,20.92
2022-10-01T13:34:37.646Z,20.83
2022-10-01T13:37:18.601Z,20.49
2022-10-01T13:39:48.309Z,20.23
2022-10-01T13:42:27.147Z,20.24
2022-10-01T13:44:59.638Z,20.23
2022-10-01T13:47:29.272Z,19.98
2022-10-01T13:50:07.786Z,19.67
2022-10-01T13:52:36.456Z,19.88
2022-10-01T13:55:05.444Z,19.74
2022-10-01T13:57:37.118Z,19.98
2022-10-01T14:00:24.590Z,19.00
2022-10-01T14:03:07.494Z,19.37
2022-10-01T14:05:43.369Z,19.28
2022-10-01T14:08:19.133Z,19.37
2022-10-01T14:11:14.552Z,19.14
2022-10-01T14:14:06.109Z,19.05
2022-10-01T14:16:39.021Z,18.94
2022-10-01T14:19:07.500Z,19.25
2022-10-01T14:22:04.345Z,19.26
2022-10-01T14:24:48.122Z,19.41
2022-10-01T14:27:24.243Z,18.77
2022-10-01T14:30:07.193Z,18.99
2022-10-01T14:33:06.358Z,19.18
2022-10-01T14:35:39.544Z,19.29
2022-10-01T14:38:20.118Z,19.05
2022-10-01T14:40:50.338Z,19.32
2022-10-01T14:43:21.919Z,18.94
2022-10-01T14:45:59.383Z,18.59
2022-10-01T14:48:30.265Z,18.44
2022-10-01T14:51:01.437Z,18.30
2022-10-01T14:53:35.202Z,18.41
2022-10-01T14:56:09.098Z,18.22
2022-10-01T14:58:40.938Z,18.13
2022-10-01T15:01:18.755Z,18.14
2022-10-01T15:03:47.967Z,17.84
2022-10-01T15:06:19.120Z,18.22
2022-10-01T15:08:50.777Z,18.09
2022-10-01T15:11:23.179Z,17.77
2022-10-01T15:13:54.298Z,17.84
2022-10-01T15:16:25.908Z,17.65
2022-10-01T15:19:00.853Z,18.26
2022-10-01T15:21:35.916Z,18.20
2022-10-01T15:24:12.868Z,18.19
2022-10-01T15:26:41.229Z,18.16
2022-10-01T15:29:16.601Z,18.00
2022-10-01T15:31:46.638Z,18.24
2022-10-01T15:34:18.310Z,17.89
2022-10-01T15:36:48.862Z,17.71
2022-10-01T15:39:32.488Z,18.46
2022-10-01T15:42:08.728Z,18.18
2022-10-01T15:44:47.443Z,18.36
2022-10-01T15:47:32.775Z,18.42
2022-10-01T15:50:19.153Z,18.35
2022-10-01T15:52:53.204Z,18.18
2022-10-01T15:55:31.994Z,18.24
2022-10-01T15:58:11.659Z,18.35
2022-10-01T16:00:56.968Z,18.44
2022-10-01T16:03:31.274Z,18.24
2022-10-01T16:06:02.161Z,18.15
2022-10-01T16:08:35.334Z,18.03
2022-10-01T16:11:20.943Z,17.73
2022-10-01T16:13:52.769Z,17.91
2022-10-01T16:16:27.596Z,17.71
2022-10-01T16:19:00.345Z,16.95
2022-10-01T16:21:29.430Z,17.48
2022-10-01T16:23:57.767Z,17.51
2022-10-01T16:26:41.032Z,17.48
2022-10-01T16:29:26.015Z,17.09
2022-10-01T16:31:54.575Z,17.59
2022-10-01T16:34:22.895Z,17.67
2022-10-01T16:36:52.205Z,17.50
2022-10-01T16:39:20.666Z,17.22
2022-10-01T16:42:12.112Z,17.19
2022-10-01T16:44:40.967Z,17.17
2022-10-01T16:47:12.524Z,17.47
2022-10-01T16:49:41.492Z,17.34
2022-10-01T16:52:14.735Z,17.48
2022-10-01T16:54:44.345Z,17.46
2022-10-01T16:57:15.266Z,17.08
2022-10-01T16:59:43.982Z,17.27
2022-10-01T17:02:14.145Z,17.26
2022-10-01T17:04:42.539Z,16.95
2022-10-01T17:07:10.771Z,17.08
2022-10-01T17:09:39.063Z,17.05
2022-10-01T17:12:07.627Z,16.96
2022-10-01T17:14:37.407Z,16.92
2022-10-01T17:17:05.838Z,17.05
2022-10-01T17:19:34.538Z,16.51
2022-10-01T17:22:04.319Z,17.24
2022-10-01T17:24:32.612Z,17.28
2022-10-01T17:27:01.114Z,17.33
2022-10-01T17:29:31.025Z,17.26
2022-10-01T17:32:00.744Z,17.02
2022-10-01T17:34:29.005Z,15.66
2022-10-01T17:36:59.758Z,17.06
2022-10-01T17:39:28.270Z,16.79
2022-10-01T17:41:56.682Z,16.85
2022-10-01T17:44:25.070Z,16.20
2022-10-01T17:46:53.353Z,16.84
2022-10-01T17:49:28.056Z,16.49
2022-10-01T17:51:56.564Z,16.68
2022-10-01T17:54:25.589Z,16.60
2022-10-01T17:56:55.116Z,16.44
2022-10-01T17:59:23.575Z,16.52
2022-10-01T18:01:53.063Z,16.37
2022-10-01T18:04:25.894Z,15.86
2022-10-01T18:06:59.118Z,16.06
2022-10-01T18:09:28.390Z,16.03
2022-10-01T18:11:56.729Z,16.24
2022-10-01T18:14:25.107Z,16.17
2022-10-01T18:16:53.506Z,16.21
2022-10-01T18:19:52.805Z,16.26
2022-10-01T18:22:14.348Z,16.16
2022-10-01T18:24:42.837Z,16.12
2022-10-01T18:27:11.102Z,15.81
2022-10-01T18:29:39.870Z,16.05
2022-10-01T18:32:16.993Z,16.05
2022-10-01T18:34:54.448Z,16.15
2022-10-01T18:37:39.078Z,15.87
2022-10-01T18:40:13.620Z,15.98
2022-10-01T18:42:49.775Z,16.07
2022-10-01T18:45:28.155Z,15.97
2022-10-01T18:48:19.393Z,15.98
2022-10-01T18:50:55.235Z,16.07
2022-10-01T18:53:51.267Z,16.00
2022-10-01T18:56:29.204Z,14.65
2022-10-01T18:59:38.481Z,16.08
2022-10-01T19:02:41.146Z,15.48
2022-10-01T19:05:57.541Z,15.70
2022-10-01T19:08:50.360Z,15.71
2022-10-01T19:11:29.982Z,15.54
2022-10-01T19:14:14.543Z,15.64
2022-10-01T19:16:53.420Z,15.55
2022-10-01T19:19:35.869Z,15.12
2022-10-01T19:22:18.438Z,15.52
2022-10-01T19:25:06.480Z,15.43
2022-10-01T19:27:52.407Z,15.31
2022-10-01T19:30:21.100Z,15.33
2022-10-01T19:32:57.526Z,15.46
2022-10-01T19:35:32.595Z,15.44
2022-10-01T19:38:07.310Z,15.39
2022-10-01T19:40:42.880Z,15.39
2022-10-01T19:43:20.123Z,15.48
2022-10-01T19:45:55.792Z,15.51
2022-10-01T19:48:31.794Z,15.40
2022-10-01T19:51:09.431Z,15.08
2022-10-01T19:53:39.945Z,15.47
2022-10-01T19:56:18.661Z,15.42
2022-10-01T19:58:47.670Z,15.25
2022-10-01T20:01:22.591Z,15.19
2022-10-01T20:04:00.737Z,15.76
2022-10-01T20:06:34.789Z,15.63
2022-10-01T20:09:12.400Z,15.42
2022-10-01T20:11:49.950Z,15.22
2022-10-01T20:14:56.395Z,15.62
2022-10-01T20:17:32.162Z,15.19
2022-10-01T20:20:11.313Z,15.52
2022-10-01T20:22:52.002Z,15.45
2022-10-01T20:25:29.642Z,15.62
2022-10-01T20:28:09.799Z,15.65
2022-10-01T20:30:48.676Z,15.65
2022-10-01T20:33:25.946Z,15.70
2022-10-01T20:36:07.246Z,15.53
2022-10-01T20:38:42.435Z,15.91
2022-10-01T20:41:17.593Z,15.92
2022-10-01T20:43:52.101Z,15.89
2022-10-01T20:46:38.618Z,15.71
2022-10-01T20:49:23.223Z,15.78
2022-10-01T20:52:00.222Z,15.48
2022-10-01T20:54:36.293Z,15.55
2022-10-01T20:57:13.796Z,15.64
2022-10-01T20:59:47.700Z,15.64
2022-10-01T21:02:29.810Z,15.52
2022-10-01T21:05:05.318Z,15.59
2022-10-01T21:07:40.664Z,15.29
2022-10-01T21:10:24.271Z,15.63
2022-10-01T21:13:12.001Z,15.56
2022-10-01T21:15:55.956Z,15.62
2022-10-01T21:18:40.228Z,15.57
2022-10-01T21:21:21.983Z,15.61
2022-10-01T21:24:10.119Z,15.67
2022-10-01T21:26:53.443Z,15.49
2022-10-01T21:29:41.264Z,15.19
2022-10-01T21:32:26.035Z,15.31
2022-10-01T21:35:07.995Z,15.68
2022-10-01T21:37:42.905Z,15.73
2022-10-01T21:40:25.716Z,15.61
2022-10-01T21:43:05.206Z,15.52
2022-10-01T21:45:43.822Z,15.60
2022-10-01T21:48:39.935Z,15.71
2022-10-01T21:51:18.459Z,15.39
2022-10-01T21:54:23.043Z,15.53
2022-10-01T21:57:12.070Z,15.41
2022-10-01T22:00:08.021Z,15.41
2022-10-01T22:02:48.788Z,15.46
2022-10-01T22:05:29.276Z,15.06
2022-10-01T22:08:14.566Z,15.62
2022-10-01T22:10:47.721Z,15.26
2022-10-01T22:13:21.102Z,15.31
2022-10-01T22:15:53.507Z,15.43
2022-10-01T22:18:33.916Z,15.62
2022-10-01T22:21:10.173Z,15.70
2022-10-01T22:23:42.792Z,15.54
2022-10-01T22:26:18.211Z,15.43
2022-10-01T22:28:53.174Z,15.94
2022-10-01T22:31:27.213Z,15.92
2022-10-01T22:34:01.943Z,15.99
2022-10-01T22:36:37.363Z,16.08
2022-10-01T22:39:12.727Z,16.09
2022-10-01T22:41:46.286Z,15.84
2022-10-01T22:44:16.943Z,16.02
2022-10-01T22:47:13.061Z,15.94
2022-10-01T22:50:06.179Z,15.71
2022-10-01T22:52:44.705Z,15.61
2022-10-01T22:55:26.226Z,15.78
2022-10-01T22:58:13.307Z,15.62
2022-10-01T23:00:54.966Z,16.00
2022-10-01T23:03:36.975Z,16.08
2022-10-01T23:06:12.896Z,16.27
2022-10-01T23:08:51.539Z,16.44
2022-10-01T23:11:27.407Z,16.56
2022-10-01T23:14:06.448Z,16.20
2022-10-01T23:16:45.090Z,16.53
2022-10-01T23:19:31.115Z,15.99
2022-10-01T23:22:08.282Z,16.38
2022-10-01T23:24:53.492Z,15.92
2022-10-01T23:27:35.546Z,15.99
2022-10-01T23:30:12.060Z,15.95
2022-10-01T23:33:04.549Z,16.06
2022-10-01T23:35:48.324Z,15.48
2022-10-01T23:38:43.958Z,16.02
2022-10-01T23:41:28.657Z,15.77
2022-10-01T23:44:09.756Z,15.90
2022-10-01T23:46:41.009Z,15.56
2022-10-01T23:49:17.245Z,15.65
2022-10-01T23:51:53.491Z,15.65
2022-10-01T23:54:31.389Z,15.64
2022-10-01T23:57:09.946Z,15.26
2022-10-01T23:59:44.369Z,15.41
